sensor_id;sensor_type;location;lat;lon;timestamp;pressure;altitude;pressure_sealevel;temperature;humidity
25420;BME280;13354;48.174;11.566;2023-07-31T00:02:18;95862.97;;;19.01;58.88
25420;BME280;13354;48.174;11.566;2023-07-31T00:04:43;95857.53;;;18.84;59.50
25420;BME280;13354;48.174;11.566;2023-07-31T00:07:09;95859.28;;;18.90;59.21
25420;BME280;13354;48.174;11.566;2023-07-31T00:09:34;95863.22;;;18.71;59.19
25420;BME280;13354;48.174;11.566;2023-07-31T00:11:59;95858.28;;;18.68;59.85
25420;BME280;13354;48.174;11.566;2023-07-31T00:14:25;95859.31;;;18.67;60.07
25420;BME280;13354;48.174;11.566;2023-07-31T00:16:50;95853.91;;;18.50;60.44
25420;BME280;13354;48.174;11.566;2023-07-31T00:19:15;95855.78;;;18.49;60.50
25420;BME280;13354;48.174;11.566;2023-07-31T00:21:41;95846.50;;;18.28;60.59
25420;BME280;13354;48.174;11.566;2023-07-31T00:24:06;95855.25;;;18.24;60.91
25420;BME280;13354;48.174;11.566;2023-07-31T00:26:31;95851.28;;;18.26;61.42
25420;BME280;13354;48.174;11.566;2023-07-31T00:28:56;95851.50;;;18.25;61.83
25420;BME280;13354;48.174;11.566;2023-07-31T00:31:22;95849.63;;;18.25;61.96
25420;BME280;13354;48.174;11.566;2023-07-31T00:33:47;95850.31;;;18.32;61.87
25420;BME280;13354;48.174;11.566;2023-07-31T00:36:12;95843.09;;;18.33;61.51
25420;BME280;13354;48.174;11.566;2023-07-31T00:38:38;95844.75;;;18.34;61.89
25420;BME280;13354;48.174;11.566;2023-07-31T00:41:03;95846.00;;;18.43;61.67
25420;BME280;13354;48.174;11.566;2023-07-31T00:43:28;95837.13;;;18.43;61.94
25420;BME280;13354;48.174;11.566;2023-07-31T00:45:53;95837.09;;;18.54;61.54
25420;BME280;13354;48.174;11.566;2023-07-31T00:48:19;95827.22;;;18.43;61.73
25420;BME280;13354;48.174;11.566;2023-07-31T00:50:44;95835.31;;;18.31;62.04
25420;BME280;13354;48.174;11.566;2023-07-31T00:53:09;95835.88;;;18.33;62.25
25420;BME280;13354;48.174;11.566;2023-07-31T00:55:35;95834.41;;;18.14;62.28
25420;BME280;13354;48.174;11.566;2023-07-31T00:58:00;95834.53;;;17.96;62.65
25420;BME280;13354;48.174;11.566;2023-07-31T01:00:25;95828.03;;;17.80;63.26
25420;BME280;13354;48.174;11.566;2023-07-31T01:02:51;95832.69;;;17.84;63.04
25420;BME280;13354;48.174;11.566;2023-07-31T01:05:25;95830.34;;;17.88;63.17
25420;BME280;13354;48.174;11.566;2023-07-31T01:08:04;95835.34;;;17.73;63.37
25420;BME280;13354;48.174;11.566;2023-07-31T01:10:36;95827.91;;;17.75;63.44
25420;BME280;13354;48.174;11.566;2023-07-31T01:13:03;95826.25;;;17.74;63.43
25420;BME280;13354;48.174;11.566;2023-07-31T01:15:28;95827.78;;;17.81;63.59
25420;BME280;13354;48.174;11.566;2023-07-31T01:17:54;95824.75;;;17.78;63.33
25420;BME280;13354;48.174;11.566;2023-07-31T01:20:23;95811.13;;;17.91;63.39
25420;BME280;13354;48.174;11.566;2023-07-31T01:28:25;95806.69;;;17.97;63.21
25420;BME280;13354;48.174;11.566;2023-07-31T01:30:54;95804.59;;;17.99;63.24
25420;BME280;13354;48.174;11.566;2023-07-31T01:33:20;95800.28;;;18.09;62.51
25420;BME280;13354;48.174;11.566;2023-07-31T01:35:48;95804.81;;;18.09;62.35
25420;BME280;13354;48.174;11.566;2023-07-31T01:38:14;95796.31;;;18.12;62.12
25420;BME280;13354;48.174;11.566;2023-07-31T01:40:42;95799.94;;;18.06;62.05
25420;BME280;13354;48.174;11.566;2023-07-31T01:43:08;95794.31;;;18.19;61.89
25420;BME280;13354;48.174;11.566;2023-07-31T01:45:33;95792.50;;;18.08;62.16
25420;BME280;13354;48.174;11.566;2023-07-31T01:47:58;95804.69;;;18.04;62.15
25420;BME280;13354;48.174;11.566;2023-07-31T01:50:24;95799.50;;;17.97;61.81
25420;BME280;13354;48.174;11.566;2023-07-31T01:52:49;95802.72;;;18.11;61.99
25420;BME280;13354;48.174;11.566;2023-07-31T01:55:14;95796.53;;;18.10;61.68
25420;BME280;13354;48.174;11.566;2023-07-31T01:57:40;95792.13;;;18.16;61.20
25420;BME280;13354;48.174;11.566;2023-07-31T02:00:05;95788.13;;;18.19;60.94
25420;BME280;13354;48.174;11.566;2023-07-31T02:02:31;95792.13;;;18.16;61.54
25420;BME280;13354;48.174;11.566;2023-07-31T02:04:56;95794.13;;;18.09;61.84
25420;BME280;13354;48.174;11.566;2023-07-31T02:07:22;95797.47;;;18.16;61.39
25420;BME280;13354;48.174;11.566;2023-07-31T02:09:47;95791.06;;;18.17;61.91
25420;BME280;13354;48.174;11.566;2023-07-31T02:12:13;95788.84;;;18.14;62.00
25420;BME280;13354;48.174;11.566;2023-07-31T02:14:39;95786.38;;;18.24;61.38
25420;BME280;13354;48.174;11.566;2023-07-31T02:17:05;95783.94;;;18.23;61.62
25420;BME280;13354;48.174;11.566;2023-07-31T02:19:30;95778.81;;;18.21;62.17
25420;BME280;13354;48.174;11.566;2023-07-31T02:21:56;95775.88;;;18.34;61.39
25420;BME280;13354;48.174;11.566;2023-07-31T02:24:21;95771.09;;;18.25;61.64
25420;BME280;13354;48.174;11.566;2023-07-31T02:26:46;95768.00;;;18.16;62.66
25420;BME280;13354;48.174;11.566;2023-07-31T02:29:11;95764.59;;;18.21;61.97
25420;BME280;13354;48.174;11.566;2023-07-31T02:31:37;95767.03;;;18.22;61.74
25420;BME280;13354;48.174;11.566;2023-07-31T02:34:02;95765.06;;;18.18;61.83
25420;BME280;13354;48.174;11.566;2023-07-31T02:36:27;95767.53;;;18.19;61.67
25420;BME280;13354;48.174;11.566;2023-07-31T02:38:53;95766.59;;;18.14;61.91
25420;BME280;13354;48.174;11.566;2023-07-31T02:41:18;95754.47;;;18.23;61.91
25420;BME280;13354;48.174;11.566;2023-07-31T02:43:43;95756.81;;;18.19;61.97
25420;BME280;13354;48.174;11.566;2023-07-31T02:46:09;95757.03;;;18.18;62.13
25420;BME280;13354;48.174;11.566;2023-07-31T02:48:34;95754.13;;;18.19;61.97
25420;BME280;13354;48.174;11.566;2023-07-31T02:50:59;95752.81;;;18.22;62.13
25420;BME280;13354;48.174;11.566;2023-07-31T02:53:25;95745.59;;;18.22;62.76
25420;BME280;13354;48.174;11.566;2023-07-31T02:55:50;95743.28;;;18.14;62.47
25420;BME280;13354;48.174;11.566;2023-07-31T02:58:15;95748.09;;;18.00;63.03
25420;BME280;13354;48.174;11.566;2023-07-31T03:00:43;95747.28;;;18.12;62.71
25420;BME280;13354;48.174;11.566;2023-07-31T03:03:09;95746.56;;;18.16;62.82
25420;BME280;13354;48.174;11.566;2023-07-31T03:05:34;95749.16;;;17.99;63.45
25420;BME280;13354;48.174;11.566;2023-07-31T03:08:00;95745.63;;;18.10;63.65
25420;BME280;13354;48.174;11.566;2023-07-31T03:10:25;95737.38;;;18.00;63.52
25420;BME280;13354;48.174;11.566;2023-07-31T03:12:50;95738.81;;;17.91;64.14
25420;BME280;13354;48.174;11.566;2023-07-31T03:15:15;95743.06;;;17.75;64.72
25420;BME280;13354;48.174;11.566;2023-07-31T03:17:41;95740.47;;;17.69;65.16
25420;BME280;13354;48.174;11.566;2023-07-31T03:20:06;95741.28;;;17.69;65.39
25420;BME280;13354;48.174;11.566;2023-07-31T03:22:33;95733.03;;;17.82;65.34
25420;BME280;13354;48.174;11.566;2023-07-31T03:25:00;95737.09;;;17.61;65.85
25420;BME280;13354;48.174;11.566;2023-07-31T03:27:25;95738.50;;;17.64;66.09
25420;BME280;13354;48.174;11.566;2023-07-31T03:29:50;95736.28;;;17.61;66.41
25420;BME280;13354;48.174;11.566;2023-07-31T03:32:16;95745.34;;;17.48;66.88
25420;BME280;13354;48.174;11.566;2023-07-31T03:34:42;95745.13;;;17.61;66.88
25420;BME280;13354;48.174;11.566;2023-07-31T03:37:07;95753.06;;;17.56;66.94
25420;BME280;13354;48.174;11.566;2023-07-31T03:39:34;95747.22;;;17.59;66.84
25420;BME280;13354;48.174;11.566;2023-07-31T03:41:59;95757.91;;;17.59;67.20
25420;BME280;13354;48.174;11.566;2023-07-31T03:44:25;95748.41;;;17.75;67.50
25420;BME280;13354;48.174;11.566;2023-07-31T03:46:50;95753.38;;;17.83;67.17
25420;BME280;13354;48.174;11.566;2023-07-31T03:49:15;95751.88;;;17.88;67.16
25420;BME280;13354;48.174;11.566;2023-07-31T03:51:41;95749.91;;;17.71;67.46
25420;BME280;13354;48.174;11.566;2023-07-31T03:54:06;95748.84;;;17.60;68.12
25420;BME280;13354;48.174;11.566;2023-07-31T03:56:33;95753.97;;;17.62;68.39
25420;BME280;13354;48.174;11.566;2023-07-31T03:58:58;95749.44;;;17.86;67.89
25420;BME280;13354;48.174;11.566;2023-07-31T04:01:23;95753.25;;;17.67;68.45
25420;BME280;13354;48.174;11.566;2023-07-31T04:03:48;95753.38;;;17.48;69.33
25420;BME280;13354;48.174;11.566;2023-07-31T04:06:14;95743.16;;;17.57;69.36
25420;BME280;13354;48.174;11.566;2023-07-31T04:08:43;95746.19;;;17.60;69.22
25420;BME280;13354;48.174;11.566;2023-07-31T04:11:08;95745.94;;;17.62;69.26
25420;BME280;13354;48.174;11.566;2023-07-31T04:13:33;95736.66;;;17.53;69.55
25420;BME280;13354;48.174;11.566;2023-07-31T04:15:59;95749.19;;;17.41;69.92
25420;BME280;13354;48.174;11.566;2023-07-31T04:18:25;95738.81;;;17.56;69.62
25420;BME280;13354;48.174;11.566;2023-07-31T04:20:50;95737.19;;;17.67;69.65
25420;BME280;13354;48.174;11.566;2023-07-31T04:23:15;95737.78;;;17.45;70.19
25420;BME280;13354;48.174;11.566;2023-07-31T04:25:40;95738.72;;;17.51;70.21
25420;BME280;13354;48.174;11.566;2023-07-31T04:28:06;95737.56;;;17.47;70.47
25420;BME280;13354;48.174;11.566;2023-07-31T04:30:32;95739.44;;;17.46;70.90
25420;BME280;13354;48.174;11.566;2023-07-31T04:32:58;95746.41;;;17.24;71.65
25420;BME280;13354;48.174;11.566;2023-07-31T04:35:23;95741.88;;;17.36;71.61
25420;BME280;13354;48.174;11.566;2023-07-31T04:37:48;95742.81;;;17.42;71.51
25420;BME280;13354;48.174;11.566;2023-07-31T04:40:15;95737.31;;;17.48;71.32
25420;BME280;13354;48.174;11.566;2023-07-31T04:42:40;95737.31;;;17.48;71.27
25420;BME280;13354;48.174;11.566;2023-07-31T04:45:07;95738.84;;;17.32;71.90
25420;BME280;13354;48.174;11.566;2023-07-31T04:47:32;95734.06;;;17.23;72.23
25420;BME280;13354;48.174;11.566;2023-07-31T04:49:58;95738.16;;;17.25;72.32
25420;BME280;13354;48.174;11.566;2023-07-31T04:52:23;95734.09;;;17.34;71.94
25420;BME280;13354;48.174;11.566;2023-07-31T04:54:48;95736.63;;;17.29;72.53
25420;BME280;13354;48.174;11.566;2023-07-31T04:57:14;95740.00;;;17.36;72.05
25420;BME280;13354;48.174;11.566;2023-07-31T04:59:39;95730.13;;;17.37;72.43
25420;BME280;13354;48.174;11.566;2023-07-31T05:02:04;95730.13;;;17.37;72.64
25420;BME280;13354;48.174;11.566;2023-07-31T05:04:30;95734.31;;;17.33;73.13
25420;BME280;13354;48.174;11.566;2023-07-31T05:06:55;95729.66;;;17.40;73.35
25420;BME280;13354;48.174;11.566;2023-07-31T05:09:20;95730.22;;;17.54;72.83
25420;BME280;13354;48.174;11.566;2023-07-31T05:11:46;95732.69;;;17.44;72.88
25420;BME280;13354;48.174;11.566;2023-07-31T05:14:11;95732.13;;;17.42;73.13
25420;BME280;13354;48.174;11.566;2023-07-31T05:16:36;95729.91;;;17.38;73.91
25420;BME280;13354;48.174;11.566;2023-07-31T05:19:02;95737.09;;;17.61;73.43
25420;BME280;13354;48.174;11.566;2023-07-31T05:21:27;95732.91;;;17.54;73.69
25420;BME280;13354;48.174;11.566;2023-07-31T05:23:52;95736.03;;;17.62;73.48
25420;BME280;13354;48.174;11.566;2023-07-31T05:26:18;95733.97;;;17.76;72.95
25420;BME280;13354;48.174;11.566;2023-07-31T05:28:43;95734.28;;;17.92;72.60
25420;BME280;13354;48.174;11.566;2023-07-31T05:31:08;95722.06;;;17.84;72.13
25420;BME280;13354;48.174;11.566;2023-07-31T05:33:34;95726.44;;;18.02;71.79
25420;BME280;13354;48.174;11.566;2023-07-31T05:35:59;95731.13;;;17.95;71.84
25420;BME280;13354;48.174;11.566;2023-07-31T05:38:24;95720.44;;;18.23;70.38
25420;BME280;13354;48.174;11.566;2023-07-31T05:40:50;95723.72;;;18.14;69.49
25420;BME280;13354;48.174;11.566;2023-07-31T05:43:15;95725.81;;;18.23;69.26
25420;BME280;13354;48.174;11.566;2023-07-31T05:45:42;95726.03;;;18.22;68.97
25420;BME280;13354;48.174;11.566;2023-07-31T05:48:07;95729.72;;;18.32;67.15
25420;BME280;13354;48.174;11.566;2023-07-31T05:50:33;95725.09;;;18.56;67.02
25420;BME280;13354;48.174;11.566;2023-07-31T05:52:58;95732.66;;;18.59;66.70
25420;BME280;13354;48.174;11.566;2023-07-31T05:55:24;95730.78;;;18.60;67.01
25420;BME280;13354;48.174;11.566;2023-07-31T05:57:52;95722.53;;;18.50;66.85
25420;BME280;13354;48.174;11.566;2023-07-31T06:00:17;95721.59;;;18.56;65.80
25420;BME280;13354;48.174;11.566;2023-07-31T06:02:43;95726.44;;;18.59;65.39
25420;BME280;13354;48.174;11.566;2023-07-31T06:05:08;95733.88;;;18.69;65.53
25420;BME280;13354;48.174;11.566;2023-07-31T06:07:33;95725.31;;;18.83;65.04
25420;BME280;13354;48.174;11.566;2023-07-31T06:09:59;95736.19;;;18.77;65.14
25420;BME280;13354;48.174;11.566;2023-07-31T06:12:30;95724.59;;;19.05;64.44
25420;BME280;13354;48.174;11.566;2023-07-31T06:14:56;95727.28;;;19.05;64.92
25420;BME280;13354;48.174;11.566;2023-07-31T06:17:22;95722.13;;;19.03;64.93
25420;BME280;13354;48.174;11.566;2023-07-31T06:19:47;95730.19;;;19.03;64.35
25420;BME280;13354;48.174;11.566;2023-07-31T06:22:12;95738.47;;;19.02;63.86
25420;BME280;13354;48.174;11.566;2023-07-31T06:24:38;95739.53;;;19.18;63.82
25420;BME280;13354;48.174;11.566;2023-07-31T06:27:03;95734.34;;;19.11;63.74
25420;BME280;13354;48.174;11.566;2023-07-31T06:29:29;95726.06;;;19.29;63.26
25420;BME280;13354;48.174;11.566;2023-07-31T06:31:54;95735.00;;;19.01;63.86
25420;BME280;13354;48.174;11.566;2023-07-31T06:34:20;95738.56;;;19.24;62.91
25420;BME280;13354;48.174;11.566;2023-07-31T06:36:45;95735.38;;;19.44;62.52
25420;BME280;13354;48.174;11.566;2023-07-31T06:39:10;95740.50;;;19.45;62.50
25420;BME280;13354;48.174;11.566;2023-07-31T06:41:35;95744.53;;;19.26;62.31
25420;BME280;13354;48.174;11.566;2023-07-31T06:44:01;95739.31;;;19.19;62.52
25420;BME280;13354;48.174;11.566;2023-07-31T06:46:26;95735.13;;;19.45;61.66
25420;BME280;13354;48.174;11.566;2023-07-31T06:48:51;95736.25;;;19.49;61.68
25420;BME280;13354;48.174;11.566;2023-07-31T06:51:17;95733.03;;;19.30;61.98
25420;BME280;13354;48.174;11.566;2023-07-31T06:53:42;95722.84;;;19.33;61.79
25420;BME280;13354;48.174;11.566;2023-07-31T06:56:10;95722.38;;;19.36;62.17
25420;BME280;13354;48.174;11.566;2023-07-31T06:58:35;95718.66;;;19.59;61.39
25420;BME280;13354;48.174;11.566;2023-07-31T07:01:00;95706.47;;;19.51;61.26
25420;BME280;13354;48.174;11.566;2023-07-31T07:03:26;95705.22;;;19.59;62.03
25420;BME280;13354;48.174;11.566;2023-07-31T07:05:51;95714.84;;;19.71;61.02
25420;BME280;13354;48.174;11.566;2023-07-31T07:08:16;95715.47;;;19.62;61.38
25420;BME280;13354;48.174;11.566;2023-07-31T07:10:42;95720.41;;;19.87;60.26
25420;BME280;13354;48.174;11.566;2023-07-31T07:13:07;95723.78;;;19.77;60.49
25420;BME280;13354;48.174;11.566;2023-07-31T07:15:33;95721.47;;;19.64;60.71
25420;BME280;13354;48.174;11.566;2023-07-31T07:17:58;95719.31;;;19.66;60.45
25420;BME280;13354;48.174;11.566;2023-07-31T07:20:23;95718.72;;;19.81;60.35
25420;BME280;13354;48.174;11.566;2023-07-31T07:22:49;95725.28;;;19.90;60.19
25420;BME280;13354;48.174;11.566;2023-07-31T07:25:14;95713.25;;;20.14;59.96
25420;BME280;13354;48.174;11.566;2023-07-31T07:27:40;95717.09;;;20.23;60.06
25420;BME280;13354;48.174;11.566;2023-07-31T07:30:05;95713.72;;;20.55;59.28
25420;BME280;13354;48.174;11.566;2023-07-31T07:32:31;95705.59;;;20.77;58.47
25420;BME280;13354;48.174;11.566;2023-07-31T07:34:56;95710.44;;;20.80;57.96
25420;BME280;13354;48.174;11.566;2023-07-31T07:37:21;95711.47;;;20.74;58.33
25420;BME280;13354;48.174;11.566;2023-07-31T07:39:47;95710.88;;;20.67;58.44
25420;BME280;13354;48.174;11.566;2023-07-31T07:42:12;95710.94;;;21.09;57.63
25420;BME280;13354;48.174;11.566;2023-07-31T07:44:37;95698.34;;;21.52;55.61
25420;BME280;13354;48.174;11.566;2023-07-31T07:47:03;95698.84;;;21.44;55.94
25420;BME280;13354;48.174;11.566;2023-07-31T07:49:28;95699.81;;;21.70;55.62
25420;BME280;13354;48.174;11.566;2023-07-31T07:51:54;95690.25;;;22.05;54.60
25420;BME280;13354;48.174;11.566;2023-07-31T07:54:19;95686.59;;;21.68;55.59
25420;BME280;13354;48.174;11.566;2023-07-31T07:56:47;95679.13;;;21.81;54.52
25420;BME280;13354;48.174;11.566;2023-07-31T07:59:12;95678.41;;;21.48;54.85
25420;BME280;13354;48.174;11.566;2023-07-31T08:01:38;95678.41;;;21.48;54.16
25420;BME280;13354;48.174;11.566;2023-07-31T08:04:03;95671.88;;;21.39;54.43
25420;BME280;13354;48.174;11.566;2023-07-31T08:06:28;95679.41;;;21.37;54.27
25420;BME280;13354;48.174;11.566;2023-07-31T08:08:55;95673.72;;;21.33;54.34
25420;BME280;13354;48.174;11.566;2023-07-31T08:11:20;95681.81;;;21.01;55.13
25420;BME280;13354;48.174;11.566;2023-07-31T08:13:47;95689.56;;;20.92;55.71
25420;BME280;13354;48.174;11.566;2023-07-31T08:16:12;95683.72;;;21.06;55.34
25420;BME280;13354;48.174;11.566;2023-07-31T08:18:37;95690.19;;;21.05;54.71
25420;BME280;13354;48.174;11.566;2023-07-31T08:21:03;95683.59;;;21.22;54.72
25420;BME280;13354;48.174;11.566;2023-07-31T08:23:28;95681.34;;;21.46;54.28
25420;BME280;13354;48.174;11.566;2023-07-31T08:25:54;95682.84;;;21.69;53.61
25420;BME280;13354;48.174;11.566;2023-07-31T08:28:19;95686.28;;;21.60;53.98
25420;BME280;13354;48.174;11.566;2023-07-31T08:30:44;95675.28;;;21.71;53.62
25420;BME280;13354;48.174;11.566;2023-07-31T08:33:10;95681.75;;;21.65;53.88
25420;BME280;13354;48.174;11.566;2023-07-31T08:35:36;95687.50;;;21.42;54.03
25420;BME280;13354;48.174;11.566;2023-07-31T08:38:01;95687.72;;;21.35;54.54
25420;BME280;13354;48.174;11.566;2023-07-31T08:40:27;95686.22;;;21.50;53.01
25420;BME280;13354;48.174;11.566;2023-07-31T08:42:54;95674.69;;;21.54;52.33
25420;BME280;13354;48.174;11.566;2023-07-31T08:45:22;95678.78;;;21.25;53.05
25420;BME280;13354;48.174;11.566;2023-07-31T08:47:49;95684.59;;;21.11;53.14
25420;BME280;13354;48.174;11.566;2023-07-31T08:50:17;95681.97;;;20.84;52.92
25420;BME280;13354;48.174;11.566;2023-07-31T08:52:43;95677.69;;;20.88;52.58
25420;BME280;13354;48.174;11.566;2023-07-31T08:55:09;95674.91;;;20.78;53.43
25420;BME280;13354;48.174;11.566;2023-07-31T08:57:36;95672.69;;;20.70;54.10
25420;BME280;13354;48.174;11.566;2023-07-31T09:00:03;95676.91;;;20.61;54.15
25420;BME280;13354;48.174;11.566;2023-07-31T09:02:36;95673.00;;;20.73;53.73
25420;BME280;13354;48.174;11.566;2023-07-31T09:05:05;95687.16;;;20.64;54.34
25420;BME280;13354;48.174;11.566;2023-07-31T09:07:31;95688.16;;;20.58;55.36
25420;BME280;13354;48.174;11.566;2023-07-31T09:09:59;95678.28;;;20.63;54.72
25420;BME280;13354;48.174;11.566;2023-07-31T09:12:25;95677.44;;;20.95;53.58
25420;BME280;13354;48.174;11.566;2023-07-31T09:14:51;95674.84;;;21.05;53.47
25420;BME280;13354;48.174;11.566;2023-07-31T09:17:28;95666.53;;;21.44;52.96
25420;BME280;13354;48.174;11.566;2023-07-31T09:19:55;95665.03;;;21.68;53.26
25420;BME280;13354;48.174;11.566;2023-07-31T09:22:31;95660.78;;;21.78;51.46
25420;BME280;13354;48.174;11.566;2023-07-31T09:25:08;95659.19;;;21.87;50.57
25420;BME280;13354;48.174;11.566;2023-07-31T09:30:15;95648.91;;;21.74;52.42
25420;BME280;13354;48.174;11.566;2023-07-31T09:32:40;95658.34;;;21.76;52.41
25420;BME280;13354;48.174;11.566;2023-07-31T09:35:29;95659.22;;;21.97;51.57
25420;BME280;13354;48.174;11.566;2023-07-31T09:37:59;95650.97;;;22.14;51.70
25420;BME280;13354;48.174;11.566;2023-07-31T09:40:30;95652.28;;;22.16;50.31
25420;BME280;13354;48.174;11.566;2023-07-31T09:42:58;95662.84;;;22.23;50.17
25420;BME280;13354;48.174;11.566;2023-07-31T09:45:24;95650.72;;;22.26;50.27
25420;BME280;13354;48.174;11.566;2023-07-31T09:47:50;95651.06;;;22.65;49.41
25420;BME280;13354;48.174;11.566;2023-07-31T09:50:15;95651.03;;;22.55;49.63
25420;BME280;13354;48.174;11.566;2023-07-31T09:52:43;95641.59;;;23.19;48.90
25420;BME280;13354;48.174;11.566;2023-07-31T09:55:09;95631.28;;;23.51;48.11
25420;BME280;13354;48.174;11.566;2023-07-31T09:57:40;95624.81;;;23.42;47.89
25420;BME280;13354;48.174;11.566;2023-07-31T10:00:08;95628.47;;;23.82;46.91
25420;BME280;13354;48.174;11.566;2023-07-31T10:02:36;95624.00;;;24.17;45.80
25420;BME280;13354;48.174;11.566;2023-07-31T10:05:03;95618.97;;;24.49;44.92
25420;BME280;13354;48.174;11.566;2023-07-31T10:07:30;95608.31;;;24.92;44.25
25420;BME280;13354;48.174;11.566;2023-07-31T10:10:00;95601.00;;;24.93;44.08
25420;BME280;13354;48.174;11.566;2023-07-31T10:12:26;95600.31;;;24.82;44.26
25420;BME280;13354;48.174;11.566;2023-07-31T10:14:54;95603.97;;;24.62;44.50
25420;BME280;13354;48.174;11.566;2023-07-31T10:17:22;95592.41;;;24.51;44.47
25420;BME280;13354;48.174;11.566;2023-07-31T10:19:49;95577.63;;;24.73;44.21
25420;BME280;13354;48.174;11.566;2023-07-31T10:22:14;95580.38;;;24.68;44.16
25420;BME280;13354;48.174;11.566;2023-07-31T10:24:42;95580.56;;;24.76;43.94
25420;BME280;13354;48.174;11.566;2023-07-31T10:27:08;95573.31;;;25.01;43.52
25420;BME280;13354;48.174;11.566;2023-07-31T10:29:35;95572.69;;;24.80;44.58
25420;BME280;13354;48.174;11.566;2023-07-31T10:32:02;95568.97;;;25.00;43.79
25420;BME280;13354;48.174;11.566;2023-07-31T10:34:33;95566.66;;;25.17;43.12
25420;BME280;13354;48.174;11.566;2023-07-31T10:37:21;95565.94;;;25.12;42.60
25420;BME280;13354;48.174;11.566;2023-07-31T10:40:05;95580.47;;;24.57;42.95
25420;BME280;13354;48.174;11.566;2023-07-31T10:42:33;95575.91;;;24.53;43.00
25420;BME280;13354;48.174;11.566;2023-07-31T10:45:07;95562.94;;;24.50;43.06
25420;BME280;13354;48.174;11.566;2023-07-31T10:47:46;95572.22;;;23.89;44.73
25420;BME280;13354;48.174;11.566;2023-07-31T10:50:19;95566.03;;;23.83;44.97
25420;BME280;13354;48.174;11.566;2023-07-31T10:52:49;95566.13;;;23.68;44.71
25420;BME280;13354;48.174;11.566;2023-07-31T10:55:16;95576.66;;;23.70;45.13
25420;BME280;13354;48.174;11.566;2023-07-31T10:57:47;95568.91;;;23.43;45.77
25420;BME280;13354;48.174;11.566;2023-07-31T11:00:25;95562.25;;;23.84;45.65
25420;BME280;13354;48.174;11.566;2023-07-31T11:08:30;95553.78;;;24.41;43.64
25420;BME280;13354;48.174;11.566;2023-07-31T11:13:39;95543.91;;;24.89;43.80
25420;BME280;13354;48.174;11.566;2023-07-31T11:16:04;95535.53;;;25.39;42.80
25420;BME280;13354;48.174;11.566;2023-07-31T11:18:30;95534.91;;;25.47;43.65
25420;BME280;13354;48.174;11.566;2023-07-31T11:20:55;95548.53;;;25.42;41.66
25420;BME280;13354;48.174;11.566;2023-07-31T11:23:22;95528.75;;;24.88;42.25
25420;BME280;13354;48.174;11.566;2023-07-31T11:25:47;95531.75;;;24.87;42.49
25420;BME280;13354;48.174;11.566;2023-07-31T11:28:14;95531.34;;;24.74;43.36
25420;BME280;13354;48.174;11.566;2023-07-31T11:30:41;95525.84;;;24.79;43.03
25420;BME280;13354;48.174;11.566;2023-07-31T11:33:07;95524.25;;;24.44;43.81
25420;BME280;13354;48.174;11.566;2023-07-31T11:35:36;95521.56;;;24.44;44.02
25420;BME280;13354;48.174;11.566;2023-07-31T11:38:02;95512.94;;;24.71;43.27
25420;BME280;13354;48.174;11.566;2023-07-31T11:40:28;95516.06;;;24.83;41.51
25420;BME280;13354;48.174;11.566;2023-07-31T11:42:58;95525.06;;;25.03;41.21
25420;BME280;13354;48.174;11.566;2023-07-31T11:45:26;95507.41;;;24.81;41.00
25420;BME280;13354;48.174;11.566;2023-07-31T11:47:54;95502.53;;;24.54;41.44
25420;BME280;13354;48.174;11.566;2023-07-31T11:50:20;95496.47;;;24.68;43.02
25420;BME280;13354;48.174;11.566;2023-07-31T11:52:48;95478.88;;;24.94;42.43
25420;BME280;13354;48.174;11.566;2023-07-31T11:55:16;95481.97;;;25.12;42.50
25420;BME280;13354;48.174;11.566;2023-07-31T11:57:43;95485.00;;;25.48;42.17
25420;BME280;13354;48.174;11.566;2023-07-31T12:00:10;95477.41;;;25.69;41.56
25420;BME280;13354;48.174;11.566;2023-07-31T12:02:38;95481.78;;;25.89;40.35
25420;BME280;13354;48.174;11.566;2023-07-31T12:05:06;95472.75;;;25.93;40.21
25420;BME280;13354;48.174;11.566;2023-07-31T12:07:52;95463.59;;;26.08;40.31
25420;BME280;13354;48.174;11.566;2023-07-31T12:10:31;95460.66;;;26.37;39.53
25420;BME280;13354;48.174;11.566;2023-07-31T12:15:29;95450.31;;;26.39;39.36
25420;BME280;13354;48.174;11.566;2023-07-31T12:17:56;95450.06;;;26.55;39.46
25420;BME280;13354;48.174;11.566;2023-07-31T12:20:21;95451.91;;;26.73;39.09
25420;BME280;13354;48.174;11.566;2023-07-31T12:22:47;95430.38;;;26.63;38.33
25420;BME280;13354;48.174;11.566;2023-07-31T12:25:15;95433.97;;;26.58;39.29
25420;BME280;13354;48.174;11.566;2023-07-31T12:27:44;95430.56;;;26.53;38.31
25420;BME280;13354;48.174;11.566;2023-07-31T12:30:48;95429.78;;;26.52;38.60
25420;BME280;13354;48.174;11.566;2023-07-31T12:33:14;95428.34;;;26.55;39.09
25420;BME280;13354;48.174;11.566;2023-07-31T12:35:46;95422.69;;;26.37;38.07
25420;BME280;13354;48.174;11.566;2023-07-31T12:38:13;95415.75;;;26.45;38.45
25420;BME280;13354;48.174;11.566;2023-07-31T12:40:39;95412.09;;;26.36;37.88
25420;BME280;13354;48.174;11.566;2023-07-31T12:43:05;95400.34;;;26.26;38.30
25420;BME280;13354;48.174;11.566;2023-07-31T12:45:31;95408.13;;;26.47;37.12
25420;BME280;13354;48.174;11.566;2023-07-31T12:47:57;95410.88;;;26.61;37.93
25420;BME280;13354;48.174;11.566;2023-07-31T12:50:23;95404.84;;;26.91;37.39
25420;BME280;13354;48.174;11.566;2023-07-31T12:52:48;95396.41;;;27.07;37.49
25420;BME280;13354;48.174;11.566;2023-07-31T12:55:14;95396.09;;;27.08;37.78
25420;BME280;13354;48.174;11.566;2023-07-31T12:57:40;95392.97;;;26.87;37.33
25420;BME280;13354;48.174;11.566;2023-07-31T13:00:07;95389.84;;;26.94;37.95
25420;BME280;13354;48.174;11.566;2023-07-31T13:02:32;95402.84;;;26.97;37.77
25420;BME280;13354;48.174;11.566;2023-07-31T13:04:58;95400.13;;;26.83;38.09
25420;BME280;13354;48.174;11.566;2023-07-31T13:07:23;95394.75;;;26.50;38.67